Time;durP1;ratioP1;P1;durP2;ratioP2;P2;SDS_P1;SDS_P2;PMS_P1;PMS_P2;Temp;Humidity;BMP_temperature;BMP_pressure;BME280_temperature;BME280_humidity;BME280_pressure;Samples;Min_cycle;Max_cycle;Signal;HPM_P1;HPM_P2
2023/11/14 00:01:37;;;;;;;23.57;5.10;;;;;;;9.17;100.00;98766.38;5003940;28;20030;-78
2023/11/14 00:04:02;;;;;;;32.17;4.90;;;;;;;9.26;100.00;98751.84;4990792;28;20040;-78
2023/11/14 00:06:27;;;;;;;33.30;5.40;;;;;;;9.24;100.00;98751.22;4979977;28;20039;-78
2023/11/14 00:08:54;;;;;;;27.57;5.23;;;;;;;9.15;100.00;98741.78;5015410;28;20036;-78
2023/11/14 00:11:21;;;;;;;;;;;;;;;9.23;100.00;98746.94;5036136;28;20405;-78
2023/11/14 00:13:46;;;;;;;24.27;4.57;;;;;;;9.19;100.00;98732.38;5036874;28;20582;-78
2023/11/14 00:16:12;;;;;;;28.97;4.53;;;;;;;9.21;100.00;98734.84;5040751;28;20037;-78
2023/11/14 00:18:37;;;;;;;26.37;5.30;;;;;;;9.34;100.00;98734.03;5030306;28;20773;-78
2023/11/14 00:21:03;;;;;;;30.23;4.93;;;;;;;9.32;100.00;98739.59;5000669;28;20024;-79
2023/11/14 00:23:29;;;;;;;17.08;5.15;;;;;;;9.33;100.00;98740.41;5011210;28;20086;-78
2023/11/14 00:25:54;;;;;;;28.67;5.13;;;;;;;9.24;100.00;98716.63;5036606;28;20036;-79
2023/11/14 00:28:19;;;;;;;31.47;6.80;;;;;;;9.39;100.00;98724.44;5040390;28;20028;-78
2023/11/14 00:30:45;;;;;;;27.43;3.80;;;;;;;9.44;100.00;98734.47;5056610;28;20042;-78
2023/11/14 00:33:10;;;;;;;37.57;5.33;;;;;;;9.39;100.00;98723.59;5039765;28;20041;-78
2023/11/14 00:35:36;;;;;;;27.40;4.67;;;;;;;9.37;100.00;98720.34;5012103;28;20475;-78
2023/11/14 00:38:01;;;;;;;36.78;5.43;;;;;;;9.38;100.00;98722.78;5024155;28;20622;-79
2023/11/14 00:40:27;;;;;;;31.92;5.18;;;;;;;9.37;100.00;98715.81;5012125;28;20047;-78
2023/11/14 00:42:52;;;;;;;23.20;6.20;;;;;;;9.38;100.00;98700.66;4955613;28;20032;-78
2023/11/14 00:45:18;;;;;;;30.73;4.60;;;;;;;9.37;100.00;98693.72;5004435;28;20060;-78
2023/11/14 00:47:43;;;;;;;30.50;5.35;;;;;;;9.35;100.00;98691.25;4969673;28;20035;-78
2023/11/14 00:50:11;;;;;;;27.63;4.37;;;;;;;9.39;100.00;98692.47;5023235;28;20064;-78
2023/11/14 00:52:37;;;;;;;38.83;5.43;;;;;;;9.36;100.00;98697.38;5012975;28;20023;-78
2023/11/14 00:55:02;;;;;;;37.50;6.15;;;;;;;9.36;100.00;98671.56;5024090;28;20032;-78
2023/11/14 00:57:28;;;;;;;22.02;4.13;;;;;;;9.42;100.00;98678.75;5002315;28;20033;-78
2023/11/14 00:59:53;;;;;;;27.47;4.57;;;;;;;9.58;100.00;98668.69;4955151;28;20059;-79
2023/11/14 01:02:19;;;;;;;26.07;5.50;;;;;;;9.54;100.00;98673.63;5018926;28;20087;-78
2023/11/14 01:04:44;;;;;;;29.80;6.05;;;;;;;9.57;100.00;98665.19;5045468;28;20125;-78
2023/11/14 01:07:10;;;;;;;29.17;5.57;;;;;;;9.55;100.00;98656.59;5039788;28;20534;-78
2023/11/14 01:09:35;;;;;;;25.23;6.00;;;;;;;9.59;100.00;98665.00;5039661;28;20124;-77
2023/11/14 01:12:02;;;;;;;25.52;5.75;;;;;;;9.59;100.00;98662.34;4990492;28;20469;-78
2023/11/14 01:14:28;;;;;;;29.85;5.90;;;;;;;9.64;100.00;98667.84;5026202;28;20032;-78
2023/11/14 01:16:54;;;;;;;27.13;5.93;;;;;;;9.55;100.00;98656.59;5051392;28;20412;-79
2023/11/14 01:19:19;;;;;;;33.23;6.10;;;;;;;9.56;100.00;98665.41;5027405;28;20463;-78
2023/11/14 01:21:46;;;;;;;31.77;6.77;;;;;;;9.64;100.00;98655.34;5018287;28;20301;-79
2023/11/14 01:24:12;;;;;;;30.05;4.57;;;;;;;9.57;100.00;98654.53;5024692;28;20045;-79
2023/11/14 01:26:38;;;;;;;32.53;5.28;;;;;;;9.60;100.00;98656.81;4987392;28;20024;-78
2023/11/14 01:29:04;;;;;;;33.53;6.37;;;;;;;9.64;100.00;98650.03;5058357;28;20038;-78
2023/11/14 01:31:30;;;;;;;22.45;5.60;;;;;;;9.66;100.00;98650.63;5044695;28;20622;-78
2023/11/14 01:33:56;;;;;;;27.13;5.67;;;;;;;9.67;100.00;98643.47;5041503;28;20024;-79
2023/11/14 01:36:22;;;;;;;34.22;6.90;;;;;;;9.62;100.00;98648.59;5016683;28;20039;-78
2023/11/14 01:38:47;;;;;;;21.45;5.95;;;;;;;9.69;100.00;98634.25;4961669;28;20023;-78
2023/11/14 01:41:12;;;;;;;36.35;7.60;;;;;;;9.70;100.00;98635.88;4970555;28;20073;-78
2023/11/14 01:43:42;;;;;;;22.17;3.67;;;;;;;9.84;100.00;98620.69;4969157;28;20118;-79
2023/11/14 01:46:11;;;;;;;30.58;5.47;;;;;;;9.87;100.00;98604.25;4968013;28;20509;-78
2023/11/14 01:48:36;;;;;;;21.50;3.88;;;;;;;9.83;100.00;98605.72;4975195;28;20092;-79
2023/11/14 01:51:02;;;;;;;17.97;4.40;;;;;;;9.76;100.00;98598.75;4966288;28;20122;-78
2023/11/14 01:53:27;;;;;;;31.42;4.88;;;;;;;9.73;100.00;98613.31;4964575;28;20034;-78
2023/11/14 01:55:53;;;;;;;18.92;5.03;;;;;;;9.68;100.00;98616.63;4998202;28;20035;-78
2023/11/14 01:58:20;;;;;;;34.55;7.32;;;;;;;9.65;100.00;98626.88;5010144;28;20074;-79
2023/11/14 02:00:45;;;;;;;28.33;5.60;;;;;;;9.64;100.00;98631.38;4984412;28;20192;-81
2023/11/14 02:03:11;;;;;;;34.63;5.40;;;;;;;9.61;100.00;98637.13;4967289;28;20039;-81
2023/11/14 02:05:37;;;;;;;24.25;5.15;;;;;;;9.63;100.00;98645.72;4948979;28;20031;-81
2023/11/14 02:08:03;;;;;;;28.70;5.40;;;;;;;9.52;100.00;98655.16;4954976;28;20546;-82
2023/11/14 02:10:29;;;;;;;30.27;5.68;;;;;;;9.50;100.00;98651.91;5017399;28;20531;-83
2023/11/14 02:12:54;;;;;;;;;;;;;;;9.44;100.00;98647.41;5037594;28;20034;-81
2023/11/14 02:15:21;;;;;;;28.27;4.57;;;;;;;9.51;100.00;98679.34;5030216;28;19916;-82
2023/11/14 02:17:47;;;;;;;23.05;5.90;;;;;;;9.45;100.00;98680.16;5032716;28;20085;-83
2023/11/14 02:20:12;;;;;;;27.15;4.53;;;;;;;9.47;100.00;98668.28;5037104;28;20593;-84
2023/11/14 02:22:38;;;;;;;23.60;3.43;;;;;;;9.47;100.00;98662.97;4996393;28;20502;-84
2023/11/14 02:25:05;;;;;;;27.75;4.25;;;;;;;9.43;100.00;98658.25;5037342;28;20385;-84
2023/11/14 02:27:31;;;;;;;26.88;5.30;;;;;;;9.49;100.00;98681.41;4966832;28;20047;-85
2023/11/14 03:36:22;;;;;;;14.80;1.90;;;;;;;8.40;100.00;98683.25;4992938;28;20105;-82
2023/11/14 03:38:48;;;;;;;8.82;1.48;;;;;;;8.36;100.00;98689.97;4963197;28;20587;-80
2023/11/14 03:41:14;;;;;;;;;;;;;;;8.38;100.00;98681.78;4956676;28;20041;-81
2023/11/14 03:43:39;;;;;;;4.90;1.30;;;;;;;8.37;100.00;98683.63;5011337;28;20008;-81
2023/11/14 03:46:05;;;;;;;18.13;2.03;;;;;;;8.39;100.00;98696.72;4952609;28;20037;-81
2023/11/14 03:48:31;;;;;;;13.52;1.77;;;;;;;8.34;100.00;98707.16;4943586;28;20035;-82
2023/11/14 03:50:56;;;;;;;10.27;1.83;;;;;;;8.36;100.00;98689.97;5007015;28;20024;-81
2023/11/14 03:53:22;;;;;;;16.97;3.03;;;;;;;8.32;100.00;98696.69;5059035;28;20041;-81
2023/11/14 03:55:48;;;;;;;9.65;3.10;;;;;;;8.33;100.00;98684.22;4972507;28;20306;-81
2023/11/14 03:58:13;;;;;;;20.23;2.00;;;;;;;8.45;100.00;98691.47;5010344;28;20036;-80
2023/11/14 04:00:39;;;;;;;14.70;2.60;;;;;;;8.45;100.00;98693.28;5033163;28;20733;-81
2023/11/14 04:03:04;;;;;;;15.80;3.35;;;;;;;8.48;100.00;98679.63;5030918;28;20050;-82
2023/11/14 04:05:30;;;;;;;8.70;3.03;;;;;;;8.52;100.00;98670.22;4953834;28;20062;-83
2023/11/14 04:07:55;;;;;;;14.90;1.75;;;;;;;8.56;100.00;98675.94;4950471;28;20036;-81
2023/11/14 04:10:21;;;;;;;13.50;2.33;;;;;;;8.66;100.00;98665.75;4950335;28;20034;-80
2023/11/14 04:12:47;;;;;;;10.52;2.45;;;;;;;8.65;100.00;98659.59;4951596;28;20279;-81
2023/11/14 04:15:12;;;;;;;14.80;2.13;;;;;;;8.65;100.00;98653.47;4966951;28;20101;-81
2023/11/14 04:17:38;;;;;;;13.05;2.45;;;;;;;8.75;100.00;98651.22;5051055;28;20037;-81
2023/11/14 04:20:05;;;;;;;16.88;2.58;;;;;;;8.65;100.00;98643.66;4950810;28;20110;-81
2023/11/14 04:22:31;;;;;;;14.30;2.10;;;;;;;8.69;100.00;98649.41;4949591;28;20054;-81
2023/11/14 04:24:58;;;;;;;15.15;3.35;;;;;;;8.77;100.00;98635.09;4980804;28;20028;-81
2023/11/14 04:27:24;;;;;;;14.07;2.85;;;;;;;8.78;100.00;98636.72;4977563;28;20039;-81
2023/11/14 04:29:49;;;;;;;16.15;2.95;;;;;;;8.77;100.00;98635.88;5059347;28;20021;-80
2023/11/14 04:32:15;;;;;;;11.50;1.70;;;;;;;8.63;100.00;98608.44;5050328;28;20036;-83
2023/11/14 04:34:41;;;;;;;13.18;2.10;;;;;;;8.72;100.00;98611.75;5050390;28;20081;-79
2023/11/14 04:37:09;;;;;;;11.03;1.33;;;;;;;8.67;100.00;98611.53;5050294;28;20040;-78
2023/11/14 04:39:34;;;;;;;5.43;1.63;;;;;;;8.73;100.00;98612.56;5083629;28;20119;-79
2023/11/14 04:42:00;;;;;;;8.40;1.40;;;;;;;8.79;100.00;98614.41;5066260;28;20164;-81
2023/11/14 04:44:26;;;;;;;8.07;1.60;;;;;;;8.85;100.00;98606.44;4962272;28;20057;-78
2023/11/14 04:46:51;;;;;;;14.75;2.60;;;;;;;8.86;100.00;98617.91;5060642;28;20500;-79
2023/11/14 04:49:17;;;;;;;8.47;1.00;;;;;;;8.87;100.00;98608.88;5050492;28;20127;-78
2023/11/14 04:51:42;;;;;;;13.70;2.03;;;;;;;8.83;100.00;98597.84;5026305;28;20270;-78
2023/11/14 04:54:07;;;;;;;7.87;2.00;;;;;;;8.90;100.00;98599.66;4998853;28;20031;-79
2023/11/14 04:56:34;;;;;;;9.10;2.00;;;;;;;8.94;100.00;98585.75;5050854;28;20321;-78
2023/11/14 04:59:00;;;;;;;12.15;2.35;;;;;;;8.88;100.00;98579.41;5022627;28;20093;-80
2023/11/14 05:01:25;;;;;;;11.45;2.78;;;;;;;8.96;100.00;98602.34;5069779;28;20045;-79
2023/11/14 05:03:53;;;;;;;;;;;;;;;9.04;100.00;98594.16;4985134;28;20034;-79
2023/11/14 05:06:18;;;;;;;14.27;2.80;;;;;;;9.01;100.00;98593.75;5035701;28;20319;-78
2023/11/14 05:08:45;;;;;;;19.48;3.03;;;;;;;9.04;100.00;98594.16;5005119;22;20046;-74
2023/11/14 05:11:10;;;;;;;14.75;2.20;;;;;;;9.02;100.00;98568.78;5025511;28;20042;-74
2023/11/14 05:13:37;;;;;;;24.40;4.17;;;;;;;9.11;100.00;98598.66;5051369;28;20054;-74
2023/11/14 05:16:04;;;;;;;13.20;2.28;;;;;;;9.01;100.00;98599.06;4958328;28;20042;-77
2023/11/14 05:18:29;;;;;;;17.42;3.05;;;;;;;9.10;100.00;98613.81;5050488;28;20024;-77
2023/11/14 05:20:54;;;;;;;21.20;3.33;;;;;;;9.06;100.00;98604.59;4991861;28;20111;-77
2023/11/14 05:23:20;;;;;;;16.17;4.00;;;;;;;9.11;100.00;98610.13;4985544;28;20038;-76
2023/11/14 05:25:45;;;;;;;15.10;2.93;;;;;;;9.14;100.00;98599.06;5070027;28;20136;-75
2023/11/14 05:28:10;;;;;;;12.50;2.77;;;;;;;9.08;100.00;98583.91;5044623;28;20544;-76
2023/11/14 05:30:36;;;;;;;12.70;3.30;;;;;;;9.14;100.00;98596.41;5069162;28;20480;-74
2023/11/14 05:33:02;;;;;;;12.05;2.38;;;;;;;9.13;100.00;98594.78;5087677;28;20601;-74
2023/11/14 05:35:28;;;;;;;22.88;4.00;;;;;;;9.15;100.00;98595.38;5089188;28;20119;-74
2023/11/14 05:37:53;;;;;;;16.02;2.92;;;;;;;9.14;100.00;98593.75;5061740;28;20125;-74
2023/11/14 05:40:19;;;;;;;10.53;3.10;;;;;;;9.12;100.00;98601.13;5046349;28;20031;-74
2023/11/14 05:42:44;;;;;;;30.13;5.60;;;;;;;9.15;100.00;98600.69;4992792;28;20134;-75
2023/11/14 05:45:10;;;;;;;22.37;3.87;;;;;;;9.18;100.00;98605.63;5028683;28;20073;-74
2023/11/14 05:47:35;;;;;;;14.85;3.45;;;;;;;9.19;100.00;98617.09;5031357;28;20045;-75
2023/11/14 05:50:03;;;;;;;32.93;7.17;;;;;;;9.18;100.00;98610.97;5046832;28;20089;-74
2023/11/14 05:52:29;;;;;;;18.65;3.30;;;;;;;9.14;100.00;98601.72;5048043;28;20642;-74
2023/11/14 05:54:54;;;;;;;18.90;3.20;;;;;;;9.05;100.00;98614.41;5061369;28;20042;-74
2023/11/14 05:57:20;;;;;;;21.83;4.00;;;;;;;9.08;100.00;98606.06;5088911;28;20032;-74
2023/11/14 05:59:47;;;;;;;16.40;3.83;;;;;;;9.00;100.00;98592.94;5014038;28;20133;-74
2023/11/14 06:02:14;;;;;;;25.88;4.60;;;;;;;9.15;100.00;98615.84;5084092;28;20036;-75
2023/11/14 06:04:40;;;;;;;25.88;4.78;;;;;;;9.08;100.00;98606.06;5004000;28;20513;-74
2023/11/14 06:07:05;;;;;;;22.27;4.47;;;;;;;9.23;100.00;98629.78;5064419;28;20023;-74
2023/11/14 06:09:30;;;;;;;29.17;6.83;;;;;;;9.15;100.00;98623.84;4998705;28;20406;-74
2023/11/14 06:11:56;;;;;;;34.43;4.30;;;;;;;9.16;100.00;98623.66;4985698;28;20621;-74
2023/11/14 06:14:21;;;;;;;22.00;5.15;;;;;;;9.15;100.00;98624.66;5057605;28;20040;-77
2023/11/14 06:16:47;;;;;;;26.53;4.30;;;;;;;9.22;100.00;98632.66;5044405;28;20109;-77
2023/11/14 06:19:12;;;;;;;25.40;4.53;;;;;;;9.20;100.00;98621.38;5064874;28;20499;-77
2023/11/14 06:21:39;;;;;;;22.20;5.17;;;;;;;9.19;100.00;98617.91;5001394;28;20490;-76
2023/11/14 06:24:04;;;;;;;25.58;4.45;;;;;;;9.21;100.00;98621.19;5036646;28;20810;-76
2023/11/14 06:26:30;;;;;;;21.73;4.03;;;;;;;9.22;100.00;98633.47;5088707;28;20057;-74
2023/11/14 06:28:55;;;;;;;35.97;5.43;;;;;;;9.16;100.00;98628.16;5087689;28;20034;-76
2023/11/14 06:31:21;;;;;;;32.27;5.70;;;;;;;9.12;100.00;98611.75;5100551;28;20270;-76
2023/11/14 06:33:46;;;;;;;39.55;5.35;;;;;;;9.22;100.00;98633.47;5083116;28;20051;-76
2023/11/14 06:36:15;;;;;;;41.17;5.80;;;;;;;9.21;100.00;98631.84;5019980;28;20050;-77
2023/11/14 06:38:40;;;;;;;24.42;4.82;;;;;;;9.19;100.00;98623.22;5006646;28;20038;-76
2023/11/14 06:41:05;;;;;;;34.80;5.67;;;;;;;9.19;100.00;98617.09;4964512;28;20071;-77
2023/11/14 06:43:31;;;;;;;32.27;4.30;;;;;;;9.27;100.00;98630.19;5041443;28;20134;-77
2023/11/14 06:45:56;;;;;;;25.77;4.70;;;;;;;9.34;100.00;98632.84;5050341;28;20031;-76
2023/11/14 06:48:21;;;;;;;31.03;4.33;;;;;;;9.21;100.00;98639.00;5087272;28;20032;-76
2023/11/14 06:50:46;;;;;;;30.63;5.33;;;;;;;9.24;100.00;98631.41;5009852;28;20074;-76
2023/11/14 06:53:12;;;;;;;39.73;6.60;;;;;;;9.29;100.00;98639.63;5076301;28;20063;-77
2023/11/14 06:55:38;;;;;;;32.77;4.97;;;;;;;9.25;100.00;98638.41;4977060;28;20042;-77
2023/11/14 06:58:03;;;;;;;38.67;6.88;;;;;;;9.28;100.00;98653.94;5043115;28;20016;-77
2023/11/14 07:00:31;;;;;;;41.67;7.60;;;;;;;9.32;100.00;98638.41;5051824;28;20027;-77
2023/11/14 07:02:56;;;;;;;28.55;4.50;;;;;;;9.28;100.00;98659.28;5080284;28;20074;-75
2023/11/14 07:05:21;;;;;;;41.13;6.60;;;;;;;9.36;100.00;98649.44;5031447;28;20054;-77
2023/11/14 07:07:47;;;;;;;35.07;4.93;;;;;;;9.29;100.00;98641.44;5068286;28;20036;-74
2023/11/14 07:10:13;;;;;;;38.53;5.03;;;;;;;9.45;100.00;98664.19;5027400;28;20039;-76
2023/11/14 07:12:38;;;;;;;36.78;6.38;;;;;;;9.39;100.00;98649.03;5086021;28;20131;-77
2023/11/14 07:15:06;;;;;;;30.50;6.55;;;;;;;9.46;100.00;98656.00;5085467;28;20367;-77
2023/11/14 07:17:32;;;;;;;31.75;6.20;;;;;;;9.43;100.00;98644.94;5085980;28;20404;-76
2023/11/14 07:19:57;;;;;;;;;;;;;;;9.48;100.00;98656.63;5016031;28;20029;-77
2023/11/14 07:22:23;;;;;;;30.00;5.82;;;;;;;9.46;100.00;98657.84;5068609;28;19916;-78
2023/11/14 07:24:48;;;;;;;35.73;5.83;;;;;;;9.46;100.00;98650.69;5084132;28;20031;-77
2023/11/14 07:27:15;;;;;;;21.17;5.67;;;;;;;9.48;100.00;98653.97;5026436;28;20319;-76
2023/11/14 07:29:46;;;;;;;28.25;5.25;;;;;;;9.45;100.00;98665.00;5051077;28;20040;-76
2023/11/14 07:32:11;;;;;;;32.53;5.82;;;;;;;9.46;100.00;98660.50;5039514;28;20032;-76
2023/11/14 07:34:37;;;;;;;28.67;4.77;;;;;;;9.58;100.00;98674.84;5020828;28;20018;-76
2023/11/14 07:37:02;;;;;;;29.48;4.63;;;;;;;9.51;100.00;98663.38;5014500;28;20263;-77
2023/11/14 07:39:28;;;;;;;30.60;5.13;;;;;;;9.57;100.00;98664.38;5018092;28;20519;-77
2023/11/14 07:41:53;;;;;;;23.65;4.60;;;;;;;9.62;100.00;98677.91;5057342;28;20032;-76
2023/11/14 07:44:19;;;;;;;37.47;5.18;;;;;;;9.57;100.00;98656.41;5086753;28;20852;-76
2023/11/14 07:46:44;;;;;;;37.23;6.63;;;;;;;9.55;100.00;98666.44;5011253;28;20046;-77
2023/11/14 07:49:10;;;;;;;30.52;5.47;;;;;;;9.59;100.00;98673.81;5086505;28;20039;-76
2023/11/14 07:51:36;;;;;;;33.88;5.90;;;;;;;9.67;100.00;98680.78;4978960;28;20043;-76
2023/11/14 07:54:01;;;;;;;27.47;4.30;;;;;;;9.82;100.00;98681.34;5037656;28;20035;-77
2023/11/14 07:56:27;;;;;;;30.77;3.57;;;;;;;10.06;100.00;98679.84;5054836;28;20030;-77
2023/11/14 07:58:53;;;;;;;17.88;3.58;;;;;;;10.32;100.00;98671.00;4990798;28;20357;-76
2023/11/14 08:01:18;;;;;;;19.77;3.30;;;;;;;10.47;100.00;98673.41;5023494;28;20081;-77
2023/11/14 08:03:44;;;;;;;16.17;3.57;;;;;;;10.75;100.00;98672.25;5066761;28;20024;-77
2023/11/14 08:06:10;;;;;;;26.83;6.57;;;;;;;10.86;100.00;98646.69;5028855;28;20562;-76
2023/11/14 08:08:36;;;;;;;16.80;3.00;;;;;;;10.91;100.00;98646.84;5046401;28;20042;-77
2023/11/14 08:11:02;;;;;;;;;;;;;;;10.67;100.00;98608.41;5081339;28;20034;-77
2023/11/14 08:13:27;;;;;;;34.83;3.90;;;;;;;10.66;100.00;98620.16;5081100;28;19912;-77
2023/11/14 08:15:52;;;;;;;10.37;2.23;;;;;;;10.46;100.00;98618.38;5012136;28;20080;-77
2023/11/14 08:18:18;;;;;;;16.57;2.80;;;;;;;10.55;100.00;98617.09;5072889;28;20045;-77
2023/11/14 08:20:43;;;;;;;18.13;3.83;;;;;;;10.38;100.00;98615.16;4991213;28;20730;-76
2023/11/14 08:23:09;;;;;;;27.63;3.90;;;;;;;10.12;100.00;98614.22;5046782;28;20032;-77
2023/11/14 08:25:34;;;;;;;16.20;3.07;;;;;;;10.05;100.00;98626.78;5038876;28;20037;-77
2023/11/14 08:27:59;;;;;;;16.43;2.47;;;;;;;9.94;100.00;98641.56;5035470;28;20049;-77
2023/11/14 08:30:27;;;;;;;16.07;2.70;;;;;;;9.78;100.00;98661.47;5008562;28;20053;-77
2023/11/14 08:32:55;;;;;;;16.17;2.63;;;;;;;9.82;100.00;98665.38;5031777;28;20038;-75
2023/11/14 08:35:21;;;;;;;16.42;2.40;;;;;;;9.83;100.00;98690.16;5066271;28;20036;-77
2023/11/14 08:37:48;;;;;;;16.63;2.35;;;;;;;9.81;100.00;98716.19;5072533;28;20510;-77
2023/11/14 08:40:14;;;;;;;16.13;2.83;;;;;;;9.76;100.00;98703.50;5088968;28;20047;-77
2023/11/14 08:42:39;;;;;;;12.73;3.20;;;;;;;9.70;100.00;98705.16;5084725;28;20024;-77
2023/11/14 08:45:06;;;;;;;10.43;3.07;;;;;;;9.80;100.00;98711.91;5088944;28;20039;-76
2023/11/14 08:47:31;;;;;;;13.45;4.20;;;;;;;9.71;100.00;98706.78;5055295;28;20062;-77
2023/11/14 08:49:56;;;;;;;16.03;2.70;;;;;;;9.84;100.00;98718.47;4978735;28;20092;-77
2023/11/14 08:52:22;;;;;;;11.13;4.00;;;;;;;9.90;100.00;98721.13;5063088;28;20491;-76
2023/11/14 08:54:48;;;;;;;18.42;2.70;;;;;;;9.88;100.00;98731.19;5089244;28;20028;-77
2023/11/14 08:57:14;;;;;;;15.35;2.80;;;;;;;10.01;100.00;98727.66;5032681;28;20145;-77
2023/11/14 08:59:40;;;;;;;15.10;2.72;;;;;;;10.15;100.00;98723.94;4994621;28;20141;-77
2023/11/14 09:02:06;;;;;;;16.38;3.95;;;;;;;10.09;100.00;98716.78;4986499;28;20051;-76
2023/11/14 09:04:31;;;;;;;16.48;2.97;;;;;;;10.28;100.00;98717.78;5045446;28;20502;-77
2023/11/14 09:06:56;;;;;;;13.83;3.00;;;;;;;10.69;100.00;98729.13;4978864;28;20499;-77
2023/11/14 09:09:23;;;;;;;18.27;3.70;;;;;;;11.03;100.00;98697.72;5062656;28;20099;-77
2023/11/14 09:11:49;;;;;;;18.83;3.85;;;;;;;11.12;100.00;98670.56;4996355;28;20114;-77
2023/11/14 09:14:16;;;;;;;16.00;3.08;;;;;;;10.89;100.00;98665.78;5088416;28;20122;-77
2023/11/14 09:16:41;;;;;;;14.30;3.42;;;;;;;10.70;100.00;98661.34;5083172;28;20480;-76
2023/11/14 09:19:07;;;;;;;13.47;2.70;;;;;;;10.33;100.00;98629.97;5062305;28;20028;-77
2023/11/14 09:21:34;;;;;;;18.25;3.42;;;;;;;10.38;100.00;98680.00;5002771;28;20049;-76
2023/11/14 09:24:00;;;;;;;18.42;2.92;;;;;;;10.46;100.00;98697.59;4985402;28;20073;-77
2023/11/14 09:26:25;;;;;;;18.85;2.90;;;;;;;10.26;100.00;98700.34;5028041;28;20133;-77
2023/11/14 09:28:51;;;;;;;24.57;2.93;;;;;;;10.34;100.00;98713.44;4989639;28;20184;-77
2023/11/14 09:31:16;;;;;;;15.77;2.88;;;;;;;10.27;100.00;98723.28;5020863;28;20064;-76
2023/11/14 09:33:42;;;;;;;16.43;2.87;;;;;;;10.18;100.00;98701.34;5004992;28;20064;-77
2023/11/14 09:36:09;;;;;;;20.75;2.53;;;;;;;10.33;100.00;98722.50;5002800;28;20609;-76
2023/11/14 09:38:34;;;;;;;;;;;;;;;10.61;100.00;98740.06;5088999;28;20035;-77
2023/11/14 09:41:00;;;;;;;13.32;3.72;;;;;;;10.28;100.00;98703.63;5087539;28;20399;-76
2023/11/14 09:43:26;;;;;;;20.70;3.97;;;;;;;10.33;100.00;98736.66;5002349;28;20035;-76
2023/11/14 09:45:52;;;;;;;22.20;3.77;;;;;;;10.26;100.00;98727.00;5006488;28;20045;-76
2023/11/14 09:48:18;;;;;;;16.77;2.50;;;;;;;10.36;100.00;98735.41;5033227;28;20529;-76
2023/11/14 09:50:45;;;;;;;13.40;2.70;;;;;;;10.45;100.00;98730.66;5027207;28;20114;-77
2023/11/14 09:53:12;;;;;;;13.90;3.33;;;;;;;10.48;100.00;98715.03;4985109;28;20060;-77
2023/11/14 09:55:38;;;;;;;22.02;3.10;;;;;;;10.62;100.00;98717.66;5031884;28;20050;-77
2023/11/14 09:58:05;;;;;;;;;;;;;;;10.53;100.00;98704.53;5077651;28;20040;-77
2023/11/14 10:00:33;;;;;;;21.10;3.60;;;;;;;10.56;100.00;98712.16;5088602;28;19908;-77
2023/11/14 10:02:59;;;;;;;16.00;3.88;;;;;;;10.46;100.00;98706.44;5087094;28;20044;-76
2023/11/14 10:05:25;;;;;;;18.27;3.00;;;;;;;10.69;100.00;98723.78;5088792;28;20028;-76
2023/11/14 10:07:50;;;;;;;22.00;4.27;;;;;;;10.54;100.00;98695.53;5074582;28;20042;-77
2023/11/14 10:10:16;;;;;;;18.13;3.95;;;;;;;10.53;100.00;98701.06;5061340;28;20118;-76
2023/11/14 10:12:42;;;;;;;17.70;2.88;;;;;;;10.54;100.00;98708.88;5071265;28;20032;-76
2023/11/14 10:15:08;;;;;;;16.38;3.72;;;;;;;10.48;100.00;98696.38;4986327;28;20052;-76
2023/11/14 10:17:41;;;;;;;18.30;2.63;;;;;;;10.68;100.00;98701.63;5059319;28;20384;-76
2023/11/14 10:20:07;;;;;;;18.10;4.03;;;;;;;10.77;100.00;98683.53;5083718;28;20036;-76
2023/11/14 10:22:34;;;;;;;25.45;5.28;;;;;;;11.14;100.00;98689.00;5033904;28;20023;-76
2023/11/14 10:25:23;;;;;;;19.65;4.57;;;;;;;11.66;100.00;98680.78;5036583;28;20055;-76
2023/11/14 10:28:07;;;;;;;26.30;4.55;;;;;;;11.60;100.00;98643.22;5077719;28;20108;-77
2023/11/14 10:30:55;;;;;;;19.75;3.22;;;;;;;11.49;100.00;98603.03;5041150;28;20085;-77
2023/11/14 10:33:40;;;;;;;20.05;3.95;;;;;;;11.36;100.00;98623.50;5027012;28;20045;-76
2023/11/14 10:36:23;;;;;;;24.02;4.25;;;;;;;11.21;100.00;98601.66;5001779;28;20099;-76
2023/11/14 10:39:08;;;;;;;28.23;6.97;;;;;;;10.95;100.00;98587.47;5033839;28;20482;-76
2023/11/14 10:41:53;;;;;;;15.15;3.33;;;;;;;10.78;100.00;98581.84;5019557;28;20195;-76
2023/11/14 10:44:38;;;;;;;22.00;3.22;;;;;;;10.84;100.00;98598.88;5032089;28;20054;-76
2023/11/14 10:47:35;;;;;;;20.65;4.28;;;;;;;10.84;100.00;98620.22;5028261;28;20294;-76
2023/11/14 10:50:31;;;;;;;28.38;4.88;;;;;;;10.91;100.00;98655.72;5008924;28;20324;-76
2023/11/14 10:53:15;;;;;;;15.75;3.08;;;;;;;10.98;100.00;98706.41;4994893;28;20046;-75
2023/11/14 10:56:02;;;;;;;22.83;3.33;;;;;;;10.95;100.00;98670.25;5026892;28;20865;-75
2023/11/14 10:58:49;;;;;;;18.05;3.97;;;;;;;11.32;100.00;98685.59;5014669;28;20354;-76
2023/11/14 11:01:33;;;;;;;17.60;3.38;;;;;;;11.24;100.00;98643.13;4994971;28;20123;-76
2023/11/14 11:04:18;;;;;;;27.30;3.55;;;;;;;10.92;100.00;98614.63;5040107;28;20557;-76
2023/11/14 12:27:20;;;;;;;18.52;2.80;;;;;;;11.24;100.00;98473.03;5086227;28;20043;-75
2023/11/14 12:29:45;;;;;;;11.65;2.63;;;;;;;11.07;100.00;98482.63;5019519;28;20038;-75
2023/11/14 12:32:12;;;;;;;21.33;3.07;;;;;;;11.01;100.00;98531.59;4983724;28;20359;-74
2023/11/14 12:34:38;;;;;;;;;;;;;;;10.96;100.00;98574.97;5059815;28;20024;-74
2023/11/14 12:37:12;;;;;;;12.15;2.97;;;;;;;10.98;100.00;98653.81;5014995;28;19910;-75
2023/11/14 12:39:38;;;;;;;13.15;2.88;;;;;;;10.89;100.00;98681.78;5059474;28;20462;-75
2023/11/14 12:42:04;;;;;;;13.67;3.03;;;;;;;10.86;100.00;98702.75;4996558;28;20494;-76
2023/11/14 12:44:32;;;;;;;14.98;2.42;;;;;;;10.93;100.00;98711.53;5084620;28;20309;-78
2023/11/14 12:46:58;;;;;;;14.80;3.13;;;;;;;10.78;100.00;98706.50;5043596;28;20478;-74
2023/11/14 12:49:27;;;;;;;13.98;2.92;;;;;;;10.83;100.00;98706.66;5085607;28;20028;-74
2023/11/14 12:51:54;;;;;;;17.92;4.10;;;;;;;10.91;100.00;98721.59;5085434;28;20493;-76
2023/11/14 12:54:24;;;;;;;16.25;3.20;;;;;;;10.75;100.00;98709.59;5027228;28;20042;-76
2023/11/14 12:56:51;;;;;;;17.38;3.22;;;;;;;10.91;100.00;98701.09;5064037;28;20272;-75
2023/11/14 12:59:19;;;;;;;19.33;3.47;;;;;;;10.73;100.00;98672.44;4990539;28;20030;-76
2023/11/14 13:01:45;;;;;;;14.85;3.42;;;;;;;10.89;100.00;98718.38;5061716;28;20040;-78
2023/11/14 13:04:12;;;;;;;15.68;2.38;;;;;;;10.92;100.00;98696.56;5016134;28;20029;-75
2023/11/14 13:06:39;;;;;;;17.17;3.78;;;;;;;10.74;100.00;98683.94;5026259;28;20038;-74
2023/11/14 13:09:07;;;;;;;12.23;2.85;;;;;;;10.85;100.00;98696.59;5067805;28;20032;-77
2023/11/14 13:11:34;;;;;;;12.45;3.05;;;;;;;10.79;100.00;98705.44;5009317;28;20037;-76
2023/11/14 13:14:01;;;;;;;12.75;3.25;;;;;;;10.78;100.00;98699.31;4983961;28;20034;-77
2023/11/14 13:16:26;;;;;;;15.68;3.10;;;;;;;10.85;100.00;98687.78;5049568;28;20101;-75
2023/11/14 13:18:53;;;;;;;25.45;3.88;;;;;;;11.03;100.00;98652.31;4974329;28;20064;-76
2023/11/14 13:21:19;;;;;;;18.85;2.72;;;;;;;11.17;100.00;98629.84;4985787;28;20068;-78
2023/11/14 13:23:44;;;;;;;23.27;2.93;;;;;;;11.32;100.00;98595.59;4980250;28;20019;-78
2023/11/14 13:26:11;;;;;;;25.53;3.43;;;;;;;11.60;100.00;98564.91;5066102;28;20032;-76
2023/11/14 13:28:37;;;;;;;18.30;4.15;;;;;;;11.41;100.00;98490.06;5030185;28;20026;-75
2023/11/14 13:31:04;;;;;;;15.82;2.88;;;;;;;11.52;100.00;98498.38;5048338;28;20030;-75
2023/11/14 13:33:30;;;;;;;14.13;3.10;;;;;;;11.49;100.00;98504.97;5046592;28;20038;-76
2023/11/14 13:35:55;;;;;;;11.18;2.35;;;;;;;11.32;100.00;98466.56;5002813;28;20061;-74
2023/11/14 13:38:21;;;;;;;15.23;3.40;;;;;;;11.30;100.00;98480.13;5088941;28;20036;-75
2023/11/14 13:40:48;;;;;;;17.10;3.70;;;;;;;11.16;100.00;98474.09;5086897;28;20036;-75
2023/11/14 13:43:15;;;;;;;17.45;2.67;;;;;;;11.06;100.00;98513.06;5046027;28;20027;-75
2023/11/14 13:45:40;;;;;;;18.02;2.53;;;;;;;11.04;100.00;98542.63;5087688;28;20020;-75
2023/11/14 13:48:07;;;;;;;20.20;3.03;;;;;;;11.12;100.00;98570.91;5025925;28;20035;-77
2023/11/14 13:50:32;;;;;;;20.65;3.15;;;;;;;11.13;100.00;98575.22;5013117;28;20033;-75